Time;durP1;ratioP1;P1;durP2;ratioP2;P2;SDS_P1;SDS_P2;PMS_P1;PMS_P2;Temp;Humidity;BMP_temperature;BMP_pressure;BME280_temperature;BME280_humidity;BME280_pressure;Samples;Min_cycle;Max_cycle;Signal;HPM_P1;HPM_P2
2023/05/19 00:01:54;;;;;;;11.70;4.55;;;12.80;65.60;;;12.22;52.29;101523.09;5060203;28;20048;-80
2023/05/19 00:04:24;;;;;;;12.65;4.80;;;12.80;65.80;;;12.22;52.51;101531.13;5067904;28;20068;-80
2023/05/19 00:06:53;;;;;;;8.77;4.68;;;12.80;66.00;;;12.18;52.57;101523.69;5057441;28;20128;-80
2023/05/19 00:09:21;;;;;;;12.82;4.80;;;12.70;66.20;;;12.16;52.60;101529.22;5057611;28;20060;-80
2023/05/19 00:11:49;;;;;;;10.82;4.90;;;12.70;66.30;;;12.13;52.57;101521.59;5068352;28;20130;-79
2023/05/19 00:14:17;;;;;;;10.85;4.60;;;12.70;66.20;;;12.11;52.77;101521.78;5066976;28;20128;-80
2023/05/19 00:16:46;;;;;;;11.75;5.00;;;12.70;66.60;;;12.07;53.12;101520.53;5063215;28;20080;-81
2023/05/19 00:19:13;;;;;;;10.90;4.88;;;12.60;66.80;;;12.04;53.28;101526.25;5052853;28;20424;-80
2023/05/19 00:24:14;;;;;;;12.80;4.80;;;12.60;66.90;;;11.99;53.30;101535.88;4993809;28;20048;-84
2023/05/19 00:26:42;;;;;;;9.38;4.75;;;12.50;67.10;;;11.95;53.48;101530.09;5007465;28;20137;-86
2023/05/19 00:29:09;;;;;;;14.38;5.13;;;12.50;67.20;;;11.95;53.40;101531.94;5009743;28;20064;-84
2023/05/19 00:31:36;;;;;;;11.10;5.20;;;12.50;67.20;;;11.92;53.48;101532.34;4990221;28;20111;-85
2023/05/19 00:34:03;;;;;;;10.98;5.28;;;12.50;67.50;;;11.91;53.43;101530.66;5008956;28;20046;-85
2023/05/19 00:36:30;;;;;;;11.93;5.00;;;12.40;67.30;;;11.87;53.54;101532.09;5022431;28;20143;-85
2023/05/19 00:38:58;;;;;;;10.93;5.05;;;12.40;67.30;;;11.85;53.51;101535.75;5022414;28;20461;-85
2023/05/19 00:41:26;;;;;;;12.27;5.07;;;12.40;67.40;;;11.83;53.63;101537.00;5027071;28;20133;-85
2023/05/19 00:43:54;;;;;;;13.38;5.60;;;12.40;67.50;;;11.79;53.70;101527.69;5027938;28;20041;-87
2023/05/19 00:46:21;;;;;;;11.10;5.03;;;12.40;67.50;;;11.77;53.73;101529.72;5002166;28;20137;-86
2023/05/19 00:48:49;;;;;;;14.48;5.35;;;12.30;67.70;;;11.76;53.70;101525.38;5025433;28;20040;-85
2023/05/19 00:51:16;;;;;;;10.25;4.97;;;12.30;67.70;;;11.73;53.92;101528.44;5027828;28;20046;-85
2023/05/19 00:53:47;;;;;;;12.15;5.10;;;12.30;67.70;;;11.70;53.84;101532.31;5014163;28;20030;-85
2023/05/19 00:56:15;;;;;;;11.50;5.45;;;12.20;67.70;;;11.68;53.92;101526.34;5025911;28;20042;-87
2023/05/19 00:58:44;;;;;;;11.20;4.95;;;12.20;67.80;;;11.66;53.94;101524.88;5020444;28;20764;-87
2023/05/19 01:01:13;;;;;;;11.23;5.03;;;12.20;67.90;;;11.65;53.88;101523.22;5006376;28;20046;-85
2023/05/19 01:03:41;;;;;;;11.00;4.72;;;12.30;68.10;;;11.63;53.99;101525.28;5024549;28;20498;-84
2023/05/19 01:06:09;;;;;;;9.75;5.15;;;12.20;68.10;;;11.61;54.29;101522.78;5026853;28;20148;-85
2023/05/19 01:08:38;;;;;;;10.93;5.13;;;12.20;68.30;;;11.57;54.29;101527.72;5026048;28;20049;-85
2023/05/19 01:11:06;;;;;;;10.05;4.95;;;12.10;68.40;;;11.54;54.24;101525.41;5023117;28;20049;-86
2023/05/19 01:13:34;;;;;;;8.57;4.38;;;12.10;68.50;;;11.53;54.23;101525.59;5016921;28;20104;-86
2023/05/19 01:16:11;;;;;;;8.88;4.78;;;12.10;68.50;;;11.51;54.14;101530.28;5023700;28;20561;-85
2023/05/19 01:18:55;;;;;;;12.05;5.10;;;12.00;68.50;;;11.48;54.46;101536.88;5006961;28;20054;-87
2023/05/19 01:22:21;;;;;;;14.23;4.97;;;12.00;68.70;;;11.46;54.50;101530.03;5013425;28;20045;-86
2023/05/19 01:25:42;;;;;;;13.48;5.05;;;12.00;68.80;;;11.42;54.43;101518.06;5021106;28;20444;-85
2023/05/19 01:29:15;;;;;;;10.07;4.75;;;12.00;68.80;;;11.40;54.46;101517.47;5008326;28;20042;-85
2023/05/19 01:31:46;;;;;;;14.38;5.30;;;11.90;68.90;;;11.35;54.65;101521.53;5015256;28;20042;-86
2023/05/19 01:34:16;;;;;;;10.25;5.03;;;11.90;69.00;;;11.33;54.69;101515.56;5018432;28;20037;-85
2023/05/19 01:36:44;;;;;;;9.15;5.03;;;11.90;69.20;;;11.31;54.81;101520.25;5019682;28;20120;-87
2023/05/19 01:39:14;;;;;;;14.50;5.28;;;11.90;69.30;;;11.29;54.61;101514.28;5027710;28;20063;-86
2023/05/19 01:41:45;;;;;;;9.60;5.15;;;11.80;69.20;;;11.27;54.66;101519.00;5026277;28;20045;-88
2023/05/19 01:44:13;;;;;;;10.13;5.10;;;11.80;69.20;;;11.26;54.73;101513.81;5026327;28;20124;-85
2023/05/19 01:46:41;;;;;;;11.38;5.50;;;11.70;69.20;;;11.24;54.74;101523.88;5018145;28;20132;-86
2023/05/19 01:49:10;;;;;;;10.10;5.43;;;11.70;69.20;;;11.22;54.87;101524.03;5009689;28;20069;-86
2023/05/19 01:51:38;;;;;;;13.35;4.97;;;11.70;69.30;;;11.20;54.76;101526.09;5008638;28;20452;-87
2023/05/19 01:54:05;;;;;;;9.40;5.25;;;11.70;69.50;;;11.18;54.95;101528.13;5010403;28;20054;-87
2023/05/19 01:56:42;;;;;;;12.82;5.75;;;11.70;69.60;;;11.15;55.04;101525.84;5013597;28;20079;-85
2023/05/19 01:59:28;;;;;;;10.85;4.97;;;11.70;69.60;;;11.14;54.88;101523.34;5023754;28;20140;-85
2023/05/19 02:02:00;;;;;;;10.40;5.53;;;11.70;69.50;;;11.12;54.97;101528.88;5020603;28;20060;-84
2023/05/19 02:04:39;;;;;;;15.02;5.72;;;11.60;69.50;;;11.09;54.73;101531.94;5009077;28;20132;-85
2023/05/19 02:07:15;;;;;;;12.70;5.45;;;11.60;69.40;;;11.07;54.96;101531.28;5011598;28;20454;-86
2023/05/19 02:09:53;;;;;;;10.77;5.28;;;11.60;69.50;;;11.04;54.84;101535.16;5020839;28;20521;-85
2023/05/19 02:12:28;;;;;;;10.50;4.93;;;11.50;69.70;;;11.03;55.06;101538.03;5013249;28;20042;-84
2023/05/19 02:15:04;;;;;;;11.70;5.63;;;11.50;69.70;;;11.00;55.10;101530.38;5027814;28;20129;-86
2023/05/19 02:17:36;;;;;;;12.48;5.43;;;11.50;69.80;;;10.98;55.07;101529.72;5022081;28;20081;-85
2023/05/19 02:20:08;;;;;;;12.63;5.43;;;11.50;69.90;;;10.95;55.21;101536.28;5005450;28;20584;-85
2023/05/19 02:22:36;;;;;;;10.93;5.72;;;11.50;70.00;;;10.92;55.28;101533.97;5017403;28;20073;-89
2023/05/19 02:25:04;;;;;;;10.93;5.40;;;11.40;69.90;;;10.90;55.24;101535.19;5027551;28;20072;-83
2023/05/19 02:27:33;;;;;;;14.88;5.75;;;11.40;70.00;;;10.87;55.25;101539.06;5029882;28;20046;-86
2023/05/19 02:30:00;;;;;;;13.63;5.28;;;11.40;70.20;;;10.85;55.39;101535.75;5030676;28;20045;-86
2023/05/19 02:32:28;;;;;;;10.27;5.22;;;11.30;70.20;;;10.83;55.63;101533.28;5030431;28;20037;-86
2023/05/19 02:34:55;;;;;;;12.65;5.80;;;11.40;70.40;;;10.81;55.67;101526.47;5004932;28;20053;-85
2023/05/19 02:37:24;;;;;;;13.57;5.22;;;11.30;70.50;;;10.79;55.41;101528.50;5021503;28;20049;-84
2023/05/19 02:39:51;;;;;;;11.27;5.50;;;11.30;70.50;;;10.76;55.52;101532.34;5030622;28;20038;-84
2023/05/19 02:42:18;;;;;;;13.73;5.72;;;11.30;70.50;;;10.74;55.65;101517.56;5029759;28;20136;-87
2023/05/19 02:44:46;;;;;;;13.05;5.70;;;11.30;70.50;;;10.71;55.71;101520.59;5016050;28;20042;-85
2023/05/19 02:47:13;;;;;;;14.55;5.78;;;11.20;70.40;;;10.69;55.66;101512.78;5006242;28;20069;-84
2023/05/19 02:49:41;;;;;;;14.90;6.13;;;11.20;70.60;;;10.67;55.64;101506.78;5024104;28;20577;-86
2023/05/19 02:52:09;;;;;;;10.32;5.30;;;11.20;70.50;;;10.67;55.64;101508.63;5020144;28;20081;-84
2023/05/19 02:54:37;;;;;;;13.82;6.00;;;11.20;70.40;;;10.65;55.74;101513.34;5011962;28;20057;-84
2023/05/19 02:57:05;;;;;;;13.73;6.03;;;11.20;70.50;;;10.63;55.87;101510.00;5030658;28;20060;-85
2023/05/19 02:59:32;;;;;;;12.20;5.90;;;11.10;70.80;;;10.60;55.71;101508.56;5027458;28;20140;-86
2023/05/19 03:02:01;;;;;;;9.45;5.63;;;11.10;70.90;;;10.58;55.96;101505.22;5013095;28;20157;-85
2023/05/19 03:04:29;;;;;;;11.45;6.15;;;11.10;70.90;;;10.56;55.84;101502.75;5027046;28;20072;-84
2023/05/19 03:06:57;;;;;;;11.63;6.03;;;11.10;70.90;;;10.54;55.78;101501.28;5029333;28;20045;-83
2023/05/19 03:09:24;;;;;;;14.32;6.35;;;11.10;71.00;;;10.52;55.80;101505.97;5012564;28;20037;-85
2023/05/19 03:11:53;;;;;;;10.27;5.53;;;11.00;70.90;;;10.49;55.91;101511.66;5010930;28;20054;-86
2023/05/19 03:14:22;;;;;;;8.70;5.50;;;11.00;70.80;;;10.47;55.84;101505.72;5029732;28;20442;-86
2023/05/19 03:16:49;;;;;;;10.15;5.38;;;11.00;70.90;;;10.45;55.95;101507.75;5029098;28;20124;-87
2023/05/19 03:19:17;;;;;;;11.00;5.78;;;11.00;71.00;;;10.42;55.90;101514.25;5012114;28;20045;-84
2023/05/19 03:21:44;;;;;;;11.65;5.70;;;10.90;71.10;;;10.41;56.00;101523.28;5029207;28;20038;-83
2023/05/19 03:24:11;;;;;;;13.00;6.50;;;11.00;71.10;;;10.39;56.02;101519.94;5019223;28;20088;-83
2023/05/19 03:26:39;;;;;;;13.82;5.35;;;10.90;71.10;;;10.38;55.94;101525.47;4992688;28;20058;-86
2023/05/19 03:29:08;;;;;;;12.05;6.00;;;10.90;71.30;;;10.35;56.06;101525.88;5017613;28;20053;-85
2023/05/19 03:31:37;;;;;;;12.55;6.22;;;10.90;71.40;;;10.32;56.12;101516.38;5027561;28;20053;-85
2023/05/19 03:34:05;;;;;;;13.68;5.72;;;10.80;71.10;;;10.29;56.22;101522.91;5024278;28;20533;-85
2023/05/19 03:36:38;;;;;;;11.25;6.35;;;10.80;71.20;;;10.29;56.13;101520.22;5029510;28;20049;-85
2023/05/19 03:39:08;;;;;;;10.02;6.22;;;10.80;71.30;;;10.28;56.44;101523.09;5010464;28;20120;-84
2023/05/19 03:41:36;;;;;;;13.48;5.85;;;10.80;71.50;;;10.26;56.34;101517.13;5017445;28;20041;-87
2023/05/19 03:44:03;;;;;;;11.18;5.60;;;10.80;71.70;;;10.24;56.35;101514.63;4999359;28;20532;-85
2023/05/19 03:46:32;;;;;;;11.45;5.60;;;10.80;71.80;;;10.23;56.38;101523.59;5011939;28;20057;-85
2023/05/19 03:49:08;;;;;;;9.25;5.53;;;10.70;71.90;;;10.21;56.58;101520.31;5024851;28;20041;-85
2023/05/19 03:52:02;;;;;;;14.32;5.93;;;10.70;71.90;;;10.21;56.62;101522.16;5012719;28;20692;-85
2023/05/19 03:54:48;;;;;;;10.27;5.93;;;10.70;72.00;;;10.20;56.77;101520.47;5028723;28;20712;-84
2023/05/19 03:57:15;;;;;;;12.20;6.03;;;10.70;72.10;;;10.18;56.88;101526.00;5010708;28;20049;-87
2023/05/19 03:59:42;;;;;;;12.75;6.20;;;10.70;72.30;;;10.18;56.97;101519.84;5024100;28;20050;-86
2023/05/19 04:02:11;;;;;;;10.98;5.75;;;10.70;72.40;;;10.17;57.15;101521.66;5006868;28;20052;-85
2023/05/19 04:04:38;;;;;;;10.98;6.30;;;10.70;72.50;;;10.17;57.12;101519.00;5027808;28;20099;-86
2023/05/19 04:07:06;;;;;;;12.55;5.65;;;10.70;72.80;;;10.17;57.45;101527.00;5025816;28;20140;-88
2023/05/19 04:09:34;;;;;;;12.55;6.40;;;10.70;72.90;;;10.17;57.52;101520.84;5017660;28;20075;-86
2023/05/19 04:12:02;;;;;;;12.00;6.20;;;10.70;72.90;;;10.18;57.60;101533.16;5012597;28;20051;-88
2023/05/19 04:14:29;;;;;;;12.38;6.72;;;10.70;73.10;;;10.18;57.81;101528.66;5023600;28;20124;-87
2023/05/19 04:16:57;;;;;;;9.68;6.53;;;10.70;73.30;;;10.19;57.90;101532.16;5016232;28;20481;-86
2023/05/19 04:19:25;;;;;;;12.40;6.30;;;10.70;73.70;;;10.19;58.14;101530.31;5025869;28;20155;-85
2023/05/19 04:21:52;;;;;;;13.63;6.70;;;10.70;73.60;;;10.20;58.26;101534.66;5027574;28;20065;-84
2023/05/19 04:24:20;;;;;;;9.65;5.78;;;10.70;73.80;;;10.22;58.27;101529.13;5012990;28;20083;-86
2023/05/19 04:26:47;;;;;;;14.95;6.93;;;10.70;73.90;;;10.23;58.51;101523.59;5006739;28;20073;-85
2023/05/19 04:29:17;;;;;;;11.45;6.97;;;10.70;74.20;;;10.25;58.74;101529.63;5025637;28;20046;-86
2023/05/19 04:31:44;;;;;;;16.02;6.63;;;10.80;74.30;;;10.27;58.99;101530.25;5026176;28;20051;-85
2023/05/19 04:34:12;;;;;;;12.23;6.78;;;10.80;74.50;;;10.29;58.88;101522.06;5010607;28;20132;-86
2023/05/19 04:36:41;;;;;;;14.07;6.68;;;10.80;74.80;;;10.32;59.23;101529.72;5022874;28;20623;-85
2023/05/19 04:39:11;;;;;;;15.15;6.75;;;10.80;74.80;;;10.33;59.09;101528.69;5012564;28;20058;-87
2023/05/19 04:41:40;;;;;;;13.25;6.75;;;10.80;74.70;;;10.37;59.45;101532.66;5021767;28;20666;-87
2023/05/19 04:44:09;;;;;;;13.48;6.70;;;10.90;74.90;;;10.42;58.99;101529.44;5005070;28;20394;-85
2023/05/19 04:46:37;;;;;;;17.58;7.53;;;10.90;74.70;;;10.49;59.14;101533.00;5019204;28;20524;-84
2023/05/19 04:49:06;;;;;;;16.83;7.55;;;11.00;74.60;;;10.58;59.28;101535.41;5009955;28;20080;-84
2023/05/19 04:51:34;;;;;;;18.25;7.20;;;11.10;74.90;;;10.67;59.18;101532.66;5004140;28;20054;-83
2023/05/19 04:54:03;;;;;;;17.33;7.88;;;11.20;74.70;;;10.75;58.96;101533.38;5018936;28;20103;-85
2023/05/19 04:56:31;;;;;;;12.18;6.68;;;11.30;74.50;;;10.89;58.82;101536.22;5010213;28;20038;-86
2023/05/19 04:58:58;;;;;;;13.18;7.55;;;11.40;74.50;;;11.03;58.74;101535.38;5026626;28;20099;-86
2023/05/19 05:01:27;;;;;;;20.92;7.65;;;11.60;74.40;;;11.16;58.18;101534.66;5007554;28;20054;-86
2023/05/19 05:03:57;;;;;;;16.63;7.13;;;11.60;73.90;;;11.29;58.12;101538.31;5026627;28;20041;-84
2023/05/19 05:06:27;;;;;;;15.82;7.65;;;11.80;74.10;;;11.43;57.94;101549.13;5009924;28;20049;-85
2023/05/19 05:08:55;;;;;;;20.63;7.75;;;11.90;73.90;;;11.54;57.38;101549.44;5020127;28;20077;-84
2023/05/19 05:11:25;;;;;;;18.15;7.40;;;12.00;73.10;;;11.68;57.23;101536.22;5007300;28;20807;-85
2023/05/19 05:13:56;;;;;;;14.60;7.00;;;12.20;73.30;;;11.81;57.10;101537.16;5005230;28;20553;-84
2023/05/19 05:16:26;;;;;;;15.82;7.30;;;12.40;73.00;;;11.95;57.01;101534.59;5024806;28;20624;-85
2023/05/19 05:18:54;;;;;;;17.60;6.85;;;12.50;72.90;;;12.07;56.62;101533.06;5010208;28;20045;-85
2023/05/19 05:21:23;;;;;;;16.63;7.05;;;12.60;72.30;;;12.21;56.29;101536.66;5008874;28;20132;-86
2023/05/19 05:23:52;;;;;;;16.55;6.95;;;12.70;72.10;;;12.33;55.73;101543.94;5010411;28;20553;-85
2023/05/19 05:26:22;;;;;;;17.40;6.80;;;12.80;71.30;;;12.46;55.19;101545.88;5009333;28;20587;-85
2023/05/19 05:28:53;;;;;;;13.18;6.35;;;13.00;70.90;;;12.56;55.06;101543.66;4996910;28;20053;-85
2023/05/19 05:31:21;;;;;;;13.38;6.15;;;13.10;70.70;;;12.68;54.86;101538.56;5007086;28;20554;-84
2023/05/19 05:33:49;;;;;;;14.35;7.25;;;13.20;70.20;;;12.82;55.06;101534.94;5019398;28;20132;-86
2023/05/19 05:36:20;;;;;;;15.02;7.57;;;13.40;70.50;;;12.92;53.95;101531.06;5025801;28;20056;-85
2023/05/19 05:38:47;;;;;;;12.77;6.20;;;13.50;69.30;;;13.03;54.27;101535.81;5028030;28;20041;-84
2023/05/19 05:41:16;;;;;;;13.13;6.18;;;13.60;69.40;;;13.15;53.83;101527.00;5026019;28;20053;-86
2023/05/19 05:43:43;;;;;;;13.43;6.80;;;13.70;69.30;;;13.27;54.31;101523.75;5028928;28;20050;-91
2023/05/19 05:46:12;;;;;;;12.88;7.10;;;13.80;69.30;;;13.39;53.72;101530.19;5033014;28;20149;-93
2023/05/19 05:48:41;;;;;;;11.65;6.13;;;13.90;68.80;;;13.51;53.32;101527.72;5013658;28;20502;-91
2023/05/19 05:51:10;;;;;;;19.65;7.38;;;14.10;68.40;;;13.62;53.51;101524.47;5023379;28;20057;-91
2023/05/19 05:53:44;;;;;;;15.00;6.97;;;14.20;68.20;;;13.72;53.55;101522.19;5014820;28;20076;-94
2023/05/19 05:56:14;;;;;;;15.43;6.50;;;14.30;68.30;;;13.83;52.28;101516.19;5011023;28;20050;-93
2023/05/19 05:58:49;;;;;;;20.10;7.57;;;14.40;66.80;;;13.94;51.42;101514.75;5007986;28;20132;-92
2023/05/19 06:01:18;;;;;;;17.92;6.90;;;14.50;66.00;;;14.03;52.11;101521.53;5024799;28;20573;-90
2023/05/19 06:03:45;;;;;;;14.55;6.72;;;14.60;66.60;;;14.12;51.47;101516.78;5027037;28;20045;-88
2023/05/19 06:06:17;;;;;;;12.52;5.75;;;14.70;66.00;;;14.21;50.85;101514.72;5009348;28;20152;-86
2023/05/19 06:08:44;;;;;;;15.13;6.20;;;14.80;65.20;;;14.31;51.22;101507.88;5012895;28;20053;-87
2023/05/19 06:11:11;;;;;;;15.60;5.43;;;14.90;65.60;;;14.43;50.30;101514.25;5023921;28;20057;-85
2023/05/19 06:13:41;;;;;;;13.82;6.10;;;15.00;64.30;;;14.52;50.09;101508.69;5007490;28;20147;-84
2023/05/19 06:16:10;;;;;;;10.57;5.53;;;15.10;64.20;;;14.56;48.27;101502.69;5001653;28;20045;-87
2023/05/19 06:18:46;;;;;;;14.43;6.10;;;15.10;61.90;;;14.58;49.03;101505.13;5009956;28;20050;-84
2023/05/19 06:21:13;;;;;;;17.35;5.80;;;15.10;62.80;;;14.64;49.05;101506.97;4992381;28;20034;-87
2023/05/19 06:23:42;;;;;;;17.33;5.53;;;15.20;62.60;;;14.65;48.11;101490.66;5031270;22;20080;-83
2023/05/19 06:26:11;;;;;;;14.70;5.68;;;15.20;61.30;;;14.76;48.78;101504.47;5023713;28;20045;-83
2023/05/19 06:28:38;;;;;;;12.43;5.32;;;15.30;62.20;;;14.83;48.38;101500.69;5035381;28;20107;-81
2023/05/19 06:31:06;;;;;;;13.07;5.57;;;15.40;61.70;;;14.91;48.87;101496.94;5022578;28;20045;-83
2023/05/19 06:33:55;;;;;;;15.50;5.40;;;15.50;62.40;;;15.00;49.54;101503.72;5026468;28;20627;-83
2023/05/19 06:36:23;;;;;;;12.48;4.93;;;15.60;63.00;;;15.05;47.67;101498.53;5021596;28;20049;-81
2023/05/19 06:38:51;;;;;;;16.55;4.82;;;15.60;60.80;;;15.07;47.11;101503.66;5026302;28;20048;-78
2023/05/19 06:41:18;;;;;;;18.00;5.07;;;15.70;60.30;;;15.17;47.62;101501.34;5028693;28;20038;-82
2023/05/19 06:43:47;;;;;;;15.73;4.65;;;15.70;60.50;;;15.22;46.66;101498.00;5025783;28;20170;-79
2023/05/19 06:46:16;;;;;;;11.90;4.40;;;15.80;59.20;;;15.29;47.02;101498.81;5020935;28;20097;-78
2023/05/19 06:48:43;;;;;;;16.73;4.32;;;15.90;59.70;;;15.37;46.54;101502.06;5041417;28;20053;-78
2023/05/19 06:51:14;;;;;;;12.38;3.78;;;16.00;59.20;;;15.47;47.09;101501.56;5027684;28;20136;-79
2023/05/19 06:53:42;;;;;;;12.40;4.30;;;16.10;59.70;;;15.55;46.36;101497.78;5022744;28;20192;-79
2023/05/19 06:56:10;;;;;;;10.70;4.35;;;16.10;58.70;;;15.64;46.92;101496.50;5028871;28;20060;-79
2023/05/19 06:58:39;;;;;;;11.27;3.80;;;16.20;59.50;;;15.71;46.01;101499.94;5026993;28;20049;-78
2023/05/19 07:01:08;;;;;;;12.52;3.70;;;16.30;58.40;;;15.79;45.13;101498.84;5024788;28;20056;-76
2023/05/19 07:03:42;;;;;;;14.38;3.90;;;16.40;57.20;;;15.85;44.91;101495.28;5027743;28;20073;-75
2023/05/19 07:06:12;;;;;;;10.23;3.53;;;16.50;56.90;;;15.92;44.54;101496.88;5024561;28;20049;-77
2023/05/19 07:08:40;;;;;;;11.68;4.07;;;16.60;56.30;;;16.00;44.61;101497.63;5021550;28;20045;-76
2023/05/19 07:11:08;;;;;;;11.48;3.78;;;16.60;56.30;;;16.09;44.48;101497.13;5024511;28;20050;-77
2023/05/19 07:13:35;;;;;;;11.77;3.85;;;16.70;55.90;;;16.16;44.93;101497.88;5027352;28;20076;-77
2023/05/19 07:16:02;;;;;;;9.15;3.75;;;16.80;56.70;;;16.22;44.86;101493.47;5026582;28;20049;-77
2023/05/19 07:18:30;;;;;;;15.40;4.10;;;16.80;56.30;;;16.27;44.22;101493.63;5025457;28;20053;-77
2023/05/19 07:20:58;;;;;;;13.73;3.22;;;16.90;56.30;;;16.31;43.60;101500.22;5022125;28;20056;-77
2023/05/19 07:23:27;;;;;;;11.35;3.45;;;16.90;55.50;;;16.33;43.11;101498.09;5024692;28;20052;-77
2023/05/19 07:25:55;;;;;;;14.48;4.43;;;17.00;55.00;;;16.43;43.79;101497.59;5041815;28;20045;-78
2023/05/19 07:28:23;;;;;;;16.17;3.72;;;17.00;55.60;;;16.50;43.38;101494.84;5032020;28;20453;-78
2023/05/19 07:30:50;;;;;;;10.95;3.92;;;17.10;55.20;;;16.54;42.34;101501.38;5027679;28;20138;-77
2023/05/19 07:33:17;;;;;;;8.30;3.13;;;17.10;53.80;;;16.56;43.04;101493.94;5029141;28;20049;-77
2023/05/19 07:35:45;;;;;;;10.82;3.65;;;17.20;54.80;;;16.62;42.69;101483.06;5026858;28;20041;-77
2023/05/19 07:38:12;;;;;;;10.80;3.60;;;17.30;54.20;;;16.65;41.94;101493.41;5027174;28;20041;-76
2023/05/19 07:40:41;;;;;;;12.40;3.67;;;17.30;53.40;;;16.60;41.75;101493.25;5026661;28;20798;-77
2023/05/19 07:43:10;;;;;;;11.00;3.63;;;17.20;53.00;;;16.61;42.88;101491.38;5028616;28;20049;-77
2023/05/19 07:45:37;;;;;;;11.45;3.67;;;17.30;54.40;;;16.66;42.26;101489.66;5023158;28;20481;-81
2023/05/19 07:48:04;;;;;;;14.60;3.90;;;17.30;53.80;;;16.73;41.96;101487.72;5025103;28;20072;-82
2023/05/19 07:50:32;;;;;;;13.75;4.00;;;17.40;53.30;;;16.80;42.24;101474.16;5026207;28;20034;-81
2023/05/19 07:53:00;;;;;;;15.13;3.88;;;17.40;53.60;;;16.83;40.78;101475.56;5027874;28;20045;-81
2023/05/19 07:55:27;;;;;;;16.08;3.92;;;17.50;51.90;;;16.84;41.13;101467.28;5027739;28;20046;-81
2023/05/19 07:57:56;;;;;;;13.43;3.45;;;17.50;52.30;;;16.86;40.80;101475.13;5028597;28;20045;-81
2023/05/19 08:00:24;;;;;;;13.82;4.03;;;17.50;51.90;;;16.88;40.92;101465.75;5023844;28;20071;-81
2023/05/19 08:02:51;;;;;;;12.02;3.53;;;17.50;52.10;;;16.87;41.19;101466.81;5026159;28;20057;-81
2023/05/19 08:05:19;;;;;;;12.23;3.13;;;17.50;52.20;;;16.95;41.05;101477.28;5021062;28;20076;-81
2023/05/19 08:07:46;;;;;;;13.25;3.92;;;17.50;52.10;;;16.99;40.31;101467.69;5023513;28;20056;-82
2023/05/19 08:10:14;;;;;;;14.50;3.63;;;17.60;51.30;;;16.98;40.30;101465.19;5024775;28;20708;-81
2023/05/19 08:12:41;;;;;;;12.35;3.22;;;17.60;51.10;;;16.99;41.00;101465.00;5024434;28;20029;-80
2023/05/19 08:15:11;;;;;;;11.27;3.08;;;17.60;52.00;;;17.05;40.37;101459.72;5022678;28;20054;-80
2023/05/19 08:17:38;;;;;;;7.13;2.53;;;17.70;51.10;;;17.05;40.71;101465.94;5029151;28;20417;-80
2023/05/19 08:20:08;;;;;;;16.35;3.40;;;17.70;51.50;;;17.12;39.95;101450.47;5020929;28;20097;-80
2023/05/19 08:22:36;;;;;;;10.70;2.80;;;17.80;50.60;;;17.18;40.75;101456.84;5022145;28;20506;-80
2023/05/19 08:25:05;;;;;;;12.85;3.13;;;17.90;51.40;;;17.19;39.73;101451.22;5024880;28;20050;-80
2023/05/19 08:27:32;;;;;;;9.02;2.63;;;17.90;50.40;;;17.22;39.21;101461.53;5021446;28;20470;-80
2023/05/19 08:30:00;;;;;;;10.32;2.65;;;17.90;49.60;;;17.25;39.21;101449.47;5040987;28;20049;-80
2023/05/19 08:32:28;;;;;;;18.92;3.17;;;17.90;49.70;;;17.29;38.69;101442.56;5041898;28;20497;-83
2023/05/19 08:34:56;;;;;;;12.00;2.60;;;17.90;48.90;;;17.32;38.53;101443.97;5017234;28;20060;-81
2023/05/19 08:37:24;;;;;;;13.63;3.03;;;18.00;48.90;;;17.33;38.07;101443.75;5028764;28;20037;-79
2023/05/19 08:39:51;;;;;;;7.85;2.40;;;18.00;48.30;;;17.33;38.44;101438.34;5040632;28;20440;-81
2023/05/19 08:42:18;;;;;;;17.15;3.17;;;18.00;48.40;;;17.38;38.75;101451.97;5043230;28;20136;-82
2023/05/19 08:44:45;;;;;;;8.40;2.15;;;18.10;49.00;;;17.40;37.60;101438.22;5025227;28;20071;-78
2023/05/19 08:47:13;;;;;;;9.00;2.75;;;18.10;47.50;;;17.38;37.48;101443.06;5033688;28;20068;-78
2023/05/19 08:49:46;;;;;;;12.23;2.63;;;18.10;47.50;;;17.37;38.01;101436.00;5025923;28;20053;-86
2023/05/19 08:52:25;;;;;;;6.18;2.17;;;18.00;47.90;;;17.37;37.98;101431.44;5036263;28;20045;-89
2023/05/19 08:55:01;;;;;;;14.10;2.70;;;18.10;47.90;;;17.35;37.08;101433.53;5032274;28;20124;-81
2023/05/19 08:57:28;;;;;;;9.13;2.38;;;18.10;46.80;;;17.24;37.25;101424.38;5037877;28;20025;-81
2023/05/19 08:59:56;;;;;;;15.60;3.00;;;18.00;46.70;;;17.21;37.98;101429.41;5027642;28;20045;-87
2023/05/19 09:02:24;;;;;;;11.00;2.50;;;17.90;47.80;;;17.23;37.46;101432.72;5027252;28;20120;-87
2023/05/19 09:04:53;;;;;;;8.05;2.25;;;17.90;47.10;;;17.19;38.24;101418.03;5027973;28;20126;-86
2023/05/19 09:07:21;;;;;;;11.57;2.75;;;17.90;48.00;;;17.16;37.35;101421.19;5036681;28;20057;-86
2023/05/19 09:09:49;;;;;;;7.63;2.35;;;17.90;47.10;;;17.18;37.07;101428.00;5027739;28;20088;-86
2023/05/19 09:12:16;;;;;;;8.48;2.00;;;17.90;46.90;;;17.15;37.29;101411.47;5024774;28;20037;-86
2023/05/19 09:14:45;;;;;;;8.55;1.90;;;17.90;46.80;;;17.17;37.67;101417.44;5040741;28;20140;-84
2023/05/19 09:17:12;;;;;;;8.32;2.05;;;17.90;47.30;;;17.18;37.97;101417.22;5026844;28;20568;-86
2023/05/19 09:19:46;;;;;;;11.30;2.33;;;17.90;47.70;;;17.17;37.08;101420.13;5027788;28;20099;-86
2023/05/19 09:22:17;;;;;;;10.77;2.35;;;17.90;46.50;;;17.17;36.66;101410.16;5027200;28;20046;-86
2023/05/19 09:24:45;;;;;;;13.10;3.03;;;17.90;46.20;;;17.18;37.14;101405.63;5022998;28;20113;-82
2023/05/19 09:27:21;;;;;;;9.50;2.38;;;17.90;46.60;;;17.20;38.04;101414.28;5035229;28;20073;-83
2023/05/19 09:29:49;;;;;;;12.63;2.25;;;17.90;47.70;;;17.17;36.53;101409.34;5025966;28;20071;-83
2023/05/19 09:32:25;;;;;;;9.20;2.10;;;17.90;45.90;;;17.14;37.30;101410.66;5027890;28;20045;-81
2023/05/19 09:34:53;;;;;;;12.57;2.75;;;17.90;46.80;;;17.13;36.42;101405.47;5028612;28;20053;-79
2023/05/19 09:37:24;;;;;;;11.90;2.50;;;17.90;45.70;;;17.07;36.31;101392.94;5040454;28;20044;-84
2023/05/19 09:39:52;;;;;;;11.13;2.53;;;17.80;45.30;;;17.06;36.32;101419.06;5018464;28;20045;-82
2023/05/19 09:42:25;;;;;;;13.32;2.53;;;17.80;45.30;;;17.03;36.00;101405.22;5028458;28;20053;-80
2023/05/19 09:45:00;;;;;;;8.50;2.30;;;17.70;45.00;;;17.06;36.84;101402.06;5026853;28;20045;-77
2023/05/19 09:47:28;;;;;;;9.95;2.25;;;17.80;45.60;;;17.13;37.28;101394.69;5027913;28;20057;-85
2023/05/19 09:49:55;;;;;;;12.27;2.70;;;17.80;46.50;;;17.19;37.97;101393.78;5028287;28;20073;-77
2023/05/19 09:52:24;;;;;;;9.10;2.47;;;17.90;47.40;;;17.23;38.64;101392.28;5030930;28;20453;-86
2023/05/19 09:54:54;;;;;;;12.45;2.10;;;17.90;48.00;;;17.29;37.22;101383.25;5032091;28;20099;-85
2023/05/19 09:57:27;;;;;;;8.70;2.05;;;18.00;46.40;;;17.33;36.67;101400.59;5031246;28;20049;-83
2023/05/19 09:59:57;;;;;;;9.13;2.50;;;18.00;45.80;;;17.28;36.12;101387.00;5031427;28;20054;-85
2023/05/19 10:02:26;;;;;;;9.48;2.22;;;18.00;44.90;;;17.31;36.41;101369.53;5037241;28;20144;-83
2023/05/19 10:04:54;;;;;;;8.93;2.30;;;18.00;45.40;;;17.29;35.84;101380.53;5025962;28;20041;-90
2023/05/19 10:07:24;;;;;;;8.50;1.95;;;18.00;44.90;;;17.28;36.65;101368.13;5037244;28;20084;-83
2023/05/19 10:09:53;;;;;;;10.20;2.47;;;18.00;45.70;;;17.30;36.47;101370.56;5030836;28;20056;-83
2023/05/19 10:12:21;;;;;;;12.50;2.35;;;18.00;45.50;;;17.32;37.53;101381.94;5022088;28;20119;-82
2023/05/19 10:14:51;;;;;;;8.00;2.47;;;18.00;46.80;;;17.37;37.47;101369.41;5025637;28;20041;-86
2023/05/19 10:17:19;;;;;;;13.00;2.72;;;18.10;46.90;;;17.39;36.29;101382.66;5027240;28;20119;-87
2023/05/19 10:19:47;;;;;;;6.03;2.10;;;18.10;45.40;;;17.37;35.92;101373.97;5031203;28;20524;-86
2023/05/19 10:22:15;;;;;;;10.65;2.30;;;18.10;44.70;;;17.34;35.88;101377.16;5018237;28;20044;-86